sensor_id;sensor_type;location;lat;lon;timestamp;temperature;humidity
2012;DHT22;1009;51.436;6.972;2022-07-29T00:02:23;19.80;99.90
2012;DHT22;1009;51.436;6.972;2022-07-29T00:04:49;19.90;99.90
2012;DHT22;1009;51.436;6.972;2022-07-29T00:07:16;19.80;99.90
2012;DHT22;1009;51.436;6.972;2022-07-29T00:09:44;19.80;99.90
2012;DHT22;1009;51.436;6.972;2022-07-29T00:12:11;19.80;99.90
2012;DHT22;1009;51.436;6.972;2022-07-29T00:14:38;19.70;99.90
2012;DHT22;1009;51.436;6.972;2022-07-29T00:17:05;19.70;99.90
2012;DHT22;1009;51.436;6.972;2022-07-29T00:19:32;19.70;99.90
2012;DHT22;1009;51.436;6.972;2022-07-29T00:21:59;19.80;99.90
2012;DHT22;1009;51.436;6.972;2022-07-29T00:24:26;19.80;99.90
2012;DHT22;1009;51.436;6.972;2022-07-29T00:26:54;19.80;99.90
2012;DHT22;1009;51.436;6.972;2022-07-29T00:29:21;19.70;99.90
2012;DHT22;1009;51.436;6.972;2022-07-29T00:31:48;19.70;99.90
2012;DHT22;1009;51.436;6.972;2022-07-29T00:34:14;19.80;99.90
2012;DHT22;1009;51.436;6.972;2022-07-29T00:36:55;19.70;99.90
2012;DHT22;1009;51.436;6.972;2022-07-29T00:39:22;19.70;99.90
2012;DHT22;1009;51.436;6.972;2022-07-29T00:41:49;19.80;99.90
2012;DHT22;1009;51.436;6.972;2022-07-29T00:44:18;19.70;99.90
2012;DHT22;1009;51.436;6.972;2022-07-29T00:46:44;19.80;99.90
2012;DHT22;1009;51.436;6.972;2022-07-29T00:49:11;19.80;99.90
2012;DHT22;1009;51.436;6.972;2022-07-29T00:51:39;19.70;99.90
2012;DHT22;1009;51.436;6.972;2022-07-29T00:54:06;19.70;99.90
2012;DHT22;1009;51.436;6.972;2022-07-29T00:56:33;19.70;99.90
2012;DHT22;1009;51.436;6.972;2022-07-29T00:59:00;19.60;99.90
2012;DHT22;1009;51.436;6.972;2022-07-29T01:01:28;19.60;99.90
2012;DHT22;1009;51.436;6.972;2022-07-29T01:03:55;19.60;99.90
2012;DHT22;1009;51.436;6.972;2022-07-29T01:06:22;19.60;99.90
2012;DHT22;1009;51.436;6.972;2022-07-29T01:08:50;19.50;99.90
2012;DHT22;1009;51.436;6.972;2022-07-29T01:11:18;19.50;99.90
2012;DHT22;1009;51.436;6.972;2022-07-29T01:13:46;19.40;99.90
2012;DHT22;1009;51.436;6.972;2022-07-29T01:16:17;19.40;99.90
2012;DHT22;1009;51.436;6.972;2022-07-29T01:18:53;19.40;99.90
2012;DHT22;1009;51.436;6.972;2022-07-29T01:21:50;19.40;99.90
2012;DHT22;1009;51.436;6.972;2022-07-29T01:24:39;19.40;99.90
2012;DHT22;1009;51.436;6.972;2022-07-29T01:27:30;19.50;99.90
2012;DHT22;1009;51.436;6.972;2022-07-29T01:30:01;19.50;99.90
2012;DHT22;1009;51.436;6.972;2022-07-29T01:32:31;19.40;99.90
2012;DHT22;1009;51.436;6.972;2022-07-29T01:35:04;19.50;99.90
2012;DHT22;1009;51.436;6.972;2022-07-29T01:37:36;19.50;99.90
2012;DHT22;1009;51.436;6.972;2022-07-29T01:40:05;19.50;99.90
2012;DHT22;1009;51.436;6.972;2022-07-29T01:42:38;19.60;99.90
2012;DHT22;1009;51.436;6.972;2022-07-29T01:45:12;19.60;99.90
2012;DHT22;1009;51.436;6.972;2022-07-29T01:47:44;19.60;99.90
2012;DHT22;1009;51.436;6.972;2022-07-29T01:50:16;19.50;99.90
2012;DHT22;1009;51.436;6.972;2022-07-29T01:52:46;19.40;99.90
2012;DHT22;1009;51.436;6.972;2022-07-29T01:55:17;19.40;99.90
2012;DHT22;1009;51.436;6.972;2022-07-29T01:57:48;19.40;99.90
2012;DHT22;1009;51.436;6.972;2022-07-29T02:00:17;19.30;99.90
2012;DHT22;1009;51.436;6.972;2022-07-29T02:02:46;19.40;99.90
2012;DHT22;1009;51.436;6.972;2022-07-29T02:05:17;19.40;99.90
2012;DHT22;1009;51.436;6.972;2022-07-29T02:07:46;19.30;99.90
2012;DHT22;1009;51.436;6.972;2022-07-29T02:10:15;19.40;99.90
2012;DHT22;1009;51.436;6.972;2022-07-29T02:12:43;19.30;99.90
2012;DHT22;1009;51.436;6.972;2022-07-29T02:15:11;19.20;99.90
2012;DHT22;1009;51.436;6.972;2022-07-29T02:17:42;19.20;99.90
2012;DHT22;1009;51.436;6.972;2022-07-29T02:20:11;19.30;99.90
2012;DHT22;1009;51.436;6.972;2022-07-29T02:22:39;19.30;99.90
2012;DHT22;1009;51.436;6.972;2022-07-29T02:25:08;19.30;99.90
2012;DHT22;1009;51.436;6.972;2022-07-29T02:27:37;19.30;99.90
2012;DHT22;1009;51.436;6.972;2022-07-29T02:30:06;19.30;99.90
2012;DHT22;1009;51.436;6.972;2022-07-29T02:32:35;19.30;99.90
2012;DHT22;1009;51.436;6.972;2022-07-29T02:35:06;19.30;99.90
2012;DHT22;1009;51.436;6.972;2022-07-29T02:37:34;19.30;99.90
2012;DHT22;1009;51.436;6.972;2022-07-29T02:40:02;19.20;99.90
2012;DHT22;1009;51.436;6.972;2022-07-29T02:42:29;19.30;99.90
2012;DHT22;1009;51.436;6.972;2022-07-29T02:44:57;19.30;99.90
2012;DHT22;1009;51.436;6.972;2022-07-29T02:47:30;19.30;99.90
2012;DHT22;1009;51.436;6.972;2022-07-29T02:50:02;19.30;99.90
2012;DHT22;1009;51.436;6.972;2022-07-29T02:52:39;19.30;99.90
2012;DHT22;1009;51.436;6.972;2022-07-29T02:55:10;19.30;99.90
2012;DHT22;1009;51.436;6.972;2022-07-29T02:57:43;19.20;99.90
2012;DHT22;1009;51.436;6.972;2022-07-29T03:00:11;19.00;99.90
2012;DHT22;1009;51.436;6.972;2022-07-29T03:02:42;19.00;99.90
2012;DHT22;1009;51.436;6.972;2022-07-29T03:05:15;18.90;99.90
2012;DHT22;1009;51.436;6.972;2022-07-29T03:07:47;18.80;99.90
2012;DHT22;1009;51.436;6.972;2022-07-29T03:10:15;18.40;99.90
2012;DHT22;1009;51.436;6.972;2022-07-29T03:12:42;18.30;99.90
2012;DHT22;1009;51.436;6.972;2022-07-29T03:15:10;18.30;99.90
2012;DHT22;1009;51.436;6.972;2022-07-29T03:17:37;18.40;99.90
2012;DHT22;1009;51.436;6.972;2022-07-29T03:20:07;18.30;99.90
2012;DHT22;1009;51.436;6.972;2022-07-29T03:22:39;18.20;99.90
2012;DHT22;1009;51.436;6.972;2022-07-29T03:25:10;18.00;99.90
2012;DHT22;1009;51.436;6.972;2022-07-29T03:27:38;18.10;99.90
2012;DHT22;1009;51.436;6.972;2022-07-29T03:30:06;18.00;99.90
2012;DHT22;1009;51.436;6.972;2022-07-29T03:32:33;18.00;99.90
2012;DHT22;1009;51.436;6.972;2022-07-29T03:35:00;18.00;99.90
2012;DHT22;1009;51.436;6.972;2022-07-29T03:37:27;18.00;99.90
2012;DHT22;1009;51.436;6.972;2022-07-29T03:39:57;17.80;99.90
2012;DHT22;1009;51.436;6.972;2022-07-29T03:42:28;17.90;99.90
2012;DHT22;1009;51.436;6.972;2022-07-29T03:44:57;18.00;99.90
2012;DHT22;1009;51.436;6.972;2022-07-29T03:47:27;18.00;99.90
2012;DHT22;1009;51.436;6.972;2022-07-29T03:50:00;17.90;99.90
2012;DHT22;1009;51.436;6.972;2022-07-29T03:52:28;17.80;99.90
2012;DHT22;1009;51.436;6.972;2022-07-29T03:54:55;17.80;99.90
2012;DHT22;1009;51.436;6.972;2022-07-29T03:57:27;17.90;99.90
2012;DHT22;1009;51.436;6.972;2022-07-29T03:59:54;17.90;99.90
2012;DHT22;1009;51.436;6.972;2022-07-29T04:02:22;17.80;99.90
2012;DHT22;1009;51.436;6.972;2022-07-29T04:04:49;17.80;99.90
2012;DHT22;1009;51.436;6.972;2022-07-29T04:07:16;17.90;99.90
2012;DHT22;1009;51.436;6.972;2022-07-29T04:09:43;17.90;99.90
2012;DHT22;1009;51.436;6.972;2022-07-29T04:12:10;17.80;99.90
2012;DHT22;1009;51.436;6.972;2022-07-29T04:14:38;17.70;99.90
2012;DHT22;1009;51.436;6.972;2022-07-29T04:17:05;17.70;99.90
2012;DHT22;1009;51.436;6.972;2022-07-29T04:19:32;17.60;99.90
2012;DHT22;1009;51.436;6.972;2022-07-29T04:21:59;17.60;99.90
2012;DHT22;1009;51.436;6.972;2022-07-29T04:24:27;17.60;99.90
2012;DHT22;1009;51.436;6.972;2022-07-29T04:26:54;17.50;99.90
2012;DHT22;1009;51.436;6.972;2022-07-29T04:29:21;17.50;99.90
2012;DHT22;1009;51.436;6.972;2022-07-29T04:31:49;17.50;99.90
2012;DHT22;1009;51.436;6.972;2022-07-29T04:34:15;17.40;99.90
2012;DHT22;1009;51.436;6.972;2022-07-29T04:36:42;17.40;99.90
2012;DHT22;1009;51.436;6.972;2022-07-29T04:39:09;17.40;99.90
2012;DHT22;1009;51.436;6.972;2022-07-29T04:41:36;17.30;99.90
2012;DHT22;1009;51.436;6.972;2022-07-29T04:44:03;17.30;99.90
2012;DHT22;1009;51.436;6.972;2022-07-29T04:46:31;17.30;99.90
2012;DHT22;1009;51.436;6.972;2022-07-29T04:48:59;17.30;99.90
2012;DHT22;1009;51.436;6.972;2022-07-29T04:51:26;17.20;99.90
2012;DHT22;1009;51.436;6.972;2022-07-29T04:53:52;17.20;99.90
2012;DHT22;1009;51.436;6.972;2022-07-29T04:56:19;17.20;99.90
2012;DHT22;1009;51.436;6.972;2022-07-29T04:58:46;17.20;99.90
2012;DHT22;1009;51.436;6.972;2022-07-29T05:01:13;17.20;99.90
2012;DHT22;1009;51.436;6.972;2022-07-29T05:03:40;17.20;99.90
2012;DHT22;1009;51.436;6.972;2022-07-29T05:06:08;17.20;99.90
2012;DHT22;1009;51.436;6.972;2022-07-29T05:08:35;17.20;99.90
2012;DHT22;1009;51.436;6.972;2022-07-29T05:11:02;17.20;99.90
2012;DHT22;1009;51.436;6.972;2022-07-29T05:13:29;17.20;99.90
2012;DHT22;1009;51.436;6.972;2022-07-29T05:15:56;17.20;99.90
2012;DHT22;1009;51.436;6.972;2022-07-29T05:18:23;17.30;99.90
2012;DHT22;1009;51.436;6.972;2022-07-29T05:20:50;17.40;99.90
2012;DHT22;1009;51.436;6.972;2022-07-29T05:23:18;17.50;99.90
2012;DHT22;1009;51.436;6.972;2022-07-29T05:25:45;17.60;99.90
2012;DHT22;1009;51.436;6.972;2022-07-29T05:28:12;17.70;99.90
2012;DHT22;1009;51.436;6.972;2022-07-29T05:30:39;17.70;99.90
2012;DHT22;1009;51.436;6.972;2022-07-29T05:33:06;17.80;99.90
2012;DHT22;1009;51.436;6.972;2022-07-29T05:35:32;17.70;99.90
2012;DHT22;1009;51.436;6.972;2022-07-29T05:38:00;17.60;99.90
2012;DHT22;1009;51.436;6.972;2022-07-29T05:40:28;17.50;99.90
2012;DHT22;1009;51.436;6.972;2022-07-29T05:42:55;17.30;99.90
2012;DHT22;1009;51.436;6.972;2022-07-29T05:45:22;17.20;99.90
2012;DHT22;1009;51.436;6.972;2022-07-29T05:47:49;17.10;99.90
2012;DHT22;1009;51.436;6.972;2022-07-29T05:50:16;17.20;99.90
2012;DHT22;1009;51.436;6.972;2022-07-29T05:52:43;17.30;99.90
2012;DHT22;1009;51.436;6.972;2022-07-29T05:55:10;17.30;99.90
2012;DHT22;1009;51.436;6.972;2022-07-29T05:57:38;17.40;99.90
2012;DHT22;1009;51.436;6.972;2022-07-29T06:00:06;17.50;99.90
2012;DHT22;1009;51.436;6.972;2022-07-29T06:02:33;17.50;99.90
2012;DHT22;1009;51.436;6.972;2022-07-29T06:05:00;17.50;99.90
2012;DHT22;1009;51.436;6.972;2022-07-29T06:07:27;17.40;99.90
2012;DHT22;1009;51.436;6.972;2022-07-29T06:09:54;17.30;99.90
2012;DHT22;1009;51.436;6.972;2022-07-29T06:12:20;17.20;99.90
2012;DHT22;1009;51.436;6.972;2022-07-29T06:14:48;17.20;99.90
2012;DHT22;1009;51.436;6.972;2022-07-29T06:17:16;17.10;99.90
2012;DHT22;1009;51.436;6.972;2022-07-29T06:19:42;16.90;99.90
2012;DHT22;1009;51.436;6.972;2022-07-29T06:22:09;16.90;99.90
2012;DHT22;1009;51.436;6.972;2022-07-29T06:24:36;16.90;99.90
2012;DHT22;1009;51.436;6.972;2022-07-29T06:27:07;16.80;99.90
2012;DHT22;1009;51.436;6.972;2022-07-29T06:29:34;16.80;99.90
2012;DHT22;1009;51.436;6.972;2022-07-29T06:32:02;17.00;99.90
2012;DHT22;1009;51.436;6.972;2022-07-29T06:34:29;17.10;99.90
2012;DHT22;1009;51.436;6.972;2022-07-29T06:36:56;17.30;99.90
2012;DHT22;1009;51.436;6.972;2022-07-29T06:39:22;17.30;99.90
2012;DHT22;1009;51.436;6.972;2022-07-29T06:41:50;17.50;99.90
2012;DHT22;1009;51.436;6.972;2022-07-29T06:44:18;17.60;99.90
2012;DHT22;1009;51.436;6.972;2022-07-29T06:46:45;17.80;99.90
2012;DHT22;1009;51.436;6.972;2022-07-29T06:49:15;17.90;99.90
2012;DHT22;1009;51.436;6.972;2022-07-29T06:51:42;18.00;99.90
2012;DHT22;1009;51.436;6.972;2022-07-29T06:54:09;18.00;99.90
2012;DHT22;1009;51.436;6.972;2022-07-29T06:56:36;18.10;99.90
2012;DHT22;1009;51.436;6.972;2022-07-29T06:59:03;18.10;99.90
2012;DHT22;1009;51.436;6.972;2022-07-29T07:01:30;18.20;99.90
2012;DHT22;1009;51.436;6.972;2022-07-29T07:03:57;18.30;99.90
2012;DHT22;1009;51.436;6.972;2022-07-29T07:06:25;18.30;99.90
2012;DHT22;1009;51.436;6.972;2022-07-29T07:08:52;18.20;99.90
2012;DHT22;1009;51.436;6.972;2022-07-29T07:11:19;18.20;99.90
2012;DHT22;1009;51.436;6.972;2022-07-29T07:13:45;18.10;99.90
2012;DHT22;1009;51.436;6.972;2022-07-29T07:16:12;18.10;99.90
2012;DHT22;1009;51.436;6.972;2022-07-29T07:18:39;18.00;99.90
2012;DHT22;1009;51.436;6.972;2022-07-29T07:21:06;18.00;99.90
2012;DHT22;1009;51.436;6.972;2022-07-29T07:23:34;18.00;99.90
2012;DHT22;1009;51.436;6.972;2022-07-29T07:26:01;18.00;99.90
2012;DHT22;1009;51.436;6.972;2022-07-29T07:28:28;18.10;99.90
2012;DHT22;1009;51.436;6.972;2022-07-29T07:30:55;18.10;99.90
2012;DHT22;1009;51.436;6.972;2022-07-29T07:33:22;18.00;99.90
2012;DHT22;1009;51.436;6.972;2022-07-29T07:35:48;18.00;99.90
2012;DHT22;1009;51.436;6.972;2022-07-29T07:38:15;18.00;99.90
2012;DHT22;1009;51.436;6.972;2022-07-29T07:40:43;18.00;99.90
2012;DHT22;1009;51.436;6.972;2022-07-29T07:43:11;17.90;99.90
2012;DHT22;1009;51.436;6.972;2022-07-29T07:45:38;17.90;99.90
2012;DHT22;1009;51.436;6.972;2022-07-29T07:48:05;17.90;99.90
2012;DHT22;1009;51.436;6.972;2022-07-29T07:50:32;17.80;99.90
2012;DHT22;1009;51.436;6.972;2022-07-29T07:52:59;17.80;99.90
2012;DHT22;1009;51.436;6.972;2022-07-29T07:55:27;17.90;99.90
2012;DHT22;1009;51.436;6.972;2022-07-29T07:57:55;18.00;99.90
2012;DHT22;1009;51.436;6.972;2022-07-29T08:00:22;17.90;99.90
2012;DHT22;1009;51.436;6.972;2022-07-29T08:02:49;18.00;99.90
2012;DHT22;1009;51.436;6.972;2022-07-29T08:05:16;18.00;99.90
2012;DHT22;1009;51.436;6.972;2022-07-29T08:07:44;18.10;99.90
2012;DHT22;1009;51.436;6.972;2022-07-29T08:10:12;18.20;99.90
2012;DHT22;1009;51.436;6.972;2022-07-29T08:12:39;18.20;99.90
2012;DHT22;1009;51.436;6.972;2022-07-29T08:15:09;18.30;99.90
2012;DHT22;1009;51.436;6.972;2022-07-29T08:17:35;18.40;99.90
2012;DHT22;1009;51.436;6.972;2022-07-29T08:20:03;18.40;99.90
2012;DHT22;1009;51.436;6.972;2022-07-29T08:22:30;18.40;99.90
2012;DHT22;1009;51.436;6.972;2022-07-29T08:24:57;18.50;99.90
2012;DHT22;1009;51.436;6.972;2022-07-29T08:27:23;18.50;99.90
2012;DHT22;1009;51.436;6.972;2022-07-29T08:29:51;18.50;99.90
2012;DHT22;1009;51.436;6.972;2022-07-29T08:32:20;18.40;99.90
2012;DHT22;1009;51.436;6.972;2022-07-29T08:34:46;18.40;99.90
2012;DHT22;1009;51.436;6.972;2022-07-29T08:37:13;18.40;99.90
2012;DHT22;1009;51.436;6.972;2022-07-29T08:39:40;18.40;99.90
2012;DHT22;1009;51.436;6.972;2022-07-29T08:42:07;18.50;99.90
2012;DHT22;1009;51.436;6.972;2022-07-29T08:44:35;18.50;99.90
2012;DHT22;1009;51.436;6.972;2022-07-29T08:47:02;18.50;99.90
2012;DHT22;1009;51.436;6.972;2022-07-29T08:49:33;18.50;99.90
2012;DHT22;1009;51.436;6.972;2022-07-29T08:52:00;18.50;99.90
2012;DHT22;1009;51.436;6.972;2022-07-29T08:54:27;18.40;99.90
2012;DHT22;1009;51.436;6.972;2022-07-29T08:56:54;18.30;99.90
2012;DHT22;1009;51.436;6.972;2022-07-29T08:59:22;18.20;99.90
2012;DHT22;1009;51.436;6.972;2022-07-29T09:01:52;18.20;99.90
2012;DHT22;1009;51.436;6.972;2022-07-29T09:04:20;18.20;99.90
2012;DHT22;1009;51.436;6.972;2022-07-29T09:06:51;18.40;99.90
2012;DHT22;1009;51.436;6.972;2022-07-29T09:09:18;18.50;99.90
2012;DHT22;1009;51.436;6.972;2022-07-29T09:11:45;18.40;99.90
2012;DHT22;1009;51.436;6.972;2022-07-29T09:14:12;18.40;99.90
2012;DHT22;1009;51.436;6.972;2022-07-29T09:16:51;18.40;99.90
2012;DHT22;1009;51.436;6.972;2022-07-29T09:19:26;18.50;99.90
2012;DHT22;1009;51.436;6.972;2022-07-29T09:21:56;18.60;99.90
2012;DHT22;1009;51.436;6.972;2022-07-29T09:24:36;18.40;99.90
2012;DHT22;1009;51.436;6.972;2022-07-29T09:27:08;18.20;99.90
2012;DHT22;1009;51.436;6.972;2022-07-29T09:29:36;18.00;99.90
2012;DHT22;1009;51.436;6.972;2022-07-29T09:32:08;17.80;99.90
2012;DHT22;1009;51.436;6.972;2022-07-29T09:34:35;18.00;99.90
2012;DHT22;1009;51.436;6.972;2022-07-29T09:37:03;18.10;99.90
2012;DHT22;1009;51.436;6.972;2022-07-29T09:39:32;18.10;99.90
2012;DHT22;1009;51.436;6.972;2022-07-29T09:42:00;18.10;99.90
2012;DHT22;1009;51.436;6.972;2022-07-29T09:44:41;18.10;99.90
2012;DHT22;1009;51.436;6.972;2022-07-29T09:47:08;18.20;99.90
2012;DHT22;1009;51.436;6.972;2022-07-29T09:49:35;18.30;99.90
2012;DHT22;1009;51.436;6.972;2022-07-29T09:52:08;18.20;99.90
2012;DHT22;1009;51.436;6.972;2022-07-29T09:54:35;18.00;99.90
2012;DHT22;1009;51.436;6.972;2022-07-29T09:57:07;17.90;99.90
2012;DHT22;1009;51.436;6.972;2022-07-29T09:59:35;18.00;99.90
2012;DHT22;1009;51.436;6.972;2022-07-29T10:02:11;18.10;99.90
2012;DHT22;1009;51.436;6.972;2022-07-29T10:04:39;18.10;99.90
2012;DHT22;1009;51.436;6.972;2022-07-29T10:07:08;18.10;99.90
2012;DHT22;1009;51.436;6.972;2022-07-29T10:09:35;18.10;99.90
2012;DHT22;1009;51.436;6.972;2022-07-29T10:12:04;18.20;99.90
2012;DHT22;1009;51.436;6.972;2022-07-29T10:14:31;18.20;99.90
2012;DHT22;1009;51.436;6.972;2022-07-29T10:16:59;18.30;99.90
2012;DHT22;1009;51.436;6.972;2022-07-29T10:19:28;18.50;99.90
2012;DHT22;1009;51.436;6.972;2022-07-29T10:21:55;18.60;99.90
2012;DHT22;1009;51.436;6.972;2022-07-29T10:24:24;18.70;99.90
2012;DHT22;1009;51.436;6.972;2022-07-29T10:26:51;18.70;99.90
2012;DHT22;1009;51.436;6.972;2022-07-29T10:29:19;18.80;99.90
2012;DHT22;1009;51.436;6.972;2022-07-29T10:31:52;18.80;99.90
2012;DHT22;1009;51.436;6.972;2022-07-29T10:34:32;18.80;99.90
2012;DHT22;1009;51.436;6.972;2022-07-29T10:37:08;18.80;99.90
2012;DHT22;1009;51.436;6.972;2022-07-29T10:39:52;18.80;99.90
2012;DHT22;1009;51.436;6.972;2022-07-29T10:42:21;18.70;99.90
2012;DHT22;1009;51.436;6.972;2022-07-29T10:44:50;18.70;99.90
2012;DHT22;1009;51.436;6.972;2022-07-29T10:47:22;18.80;99.90
2012;DHT22;1009;51.436;6.972;2022-07-29T10:49:56;18.80;99.90
2012;DHT22;1009;51.436;6.972;2022-07-29T10:52:24;18.80;99.90
2012;DHT22;1009;51.436;6.972;2022-07-29T10:54:54;19.00;99.90
2012;DHT22;1009;51.436;6.972;2022-07-29T10:57:26;19.20;99.90
2012;DHT22;1009;51.436;6.972;2022-07-29T11:00:25;19.30;99.90
2012;DHT22;1009;51.436;6.972;2022-07-29T11:02:52;19.40;99.90
2012;DHT22;1009;51.436;6.972;2022-07-29T11:05:20;19.50;99.90
2012;DHT22;1009;51.436;6.972;2022-07-29T11:11:31;19.60;99.90
2012;DHT22;1009;51.436;6.972;2022-07-29T11:13:58;19.90;99.90
2012;DHT22;1009;51.436;6.972;2022-07-29T11:16:25;20.20;99.90
2012;DHT22;1009;51.436;6.972;2022-07-29T11:19:23;20.10;99.90
2012;DHT22;1009;51.436;6.972;2022-07-29T11:21:50;20.30;99.90
2012;DHT22;1009;51.436;6.972;2022-07-29T11:24:20;20.40;99.90
2012;DHT22;1009;51.436;6.972;2022-07-29T11:27:08;20.70;99.90
2012;DHT22;1009;51.436;6.972;2022-07-29T11:29:39;21.20;99.90
2012;DHT22;1009;51.436;6.972;2022-07-29T11:32:10;21.60;99.90
2012;DHT22;1009;51.436;6.972;2022-07-29T11:34:37;21.90;99.90
2012;DHT22;1009;51.436;6.972;2022-07-29T11:37:22;22.10;99.90
2012;DHT22;1009;51.436;6.972;2022-07-29T11:40:23;22.30;99.90
2012;DHT22;1009;51.436;6.972;2022-07-29T11:42:52;22.50;99.90
2012;DHT22;1009;51.436;6.972;2022-07-29T11:45:20;22.40;99.90
2012;DHT22;1009;51.436;6.972;2022-07-29T11:47:53;22.20;99.90
2012;DHT22;1009;51.436;6.972;2022-07-29T11:50:29;22.20;99.90
2012;DHT22;1009;51.436;6.972;2022-07-29T11:52:56;22.20;99.90
2012;DHT22;1009;51.436;6.972;2022-07-29T11:55:24;22.10;99.90
2012;DHT22;1009;51.436;6.972;2022-07-29T11:57:53;22.10;99.90
2012;DHT22;1009;51.436;6.972;2022-07-29T12:00:26;22.00;99.90
2012;DHT22;1009;51.436;6.972;2022-07-29T12:02:54;21.70;99.90
2012;DHT22;1009;51.436;6.972;2022-07-29T12:05:31;21.60;99.90
2012;DHT22;1009;51.436;6.972;2022-07-29T12:08:08;21.70;99.90
2012;DHT22;1009;51.436;6.972;2022-07-29T12:10:35;21.70;99.90
2012;DHT22;1009;51.436;6.972;2022-07-29T12:13:04;21.50;99.90
2012;DHT22;1009;51.436;6.972;2022-07-29T12:15:31;21.50;99.90
2012;DHT22;1009;51.436;6.972;2022-07-29T12:17:57;21.70;99.90
2012;DHT22;1009;51.436;6.972;2022-07-29T12:20:26;21.60;99.90
2012;DHT22;1009;51.436;6.972;2022-07-29T12:22:54;21.50;99.90
2012;DHT22;1009;51.436;6.972;2022-07-29T12:25:22;21.50;99.90
2012;DHT22;1009;51.436;6.972;2022-07-29T12:27:58;21.50;99.90
2012;DHT22;1009;51.436;6.972;2022-07-29T12:30:37;21.50;99.90
2012;DHT22;1009;51.436;6.972;2022-07-29T12:33:14;21.50;99.90
2012;DHT22;1009;51.436;6.972;2022-07-29T12:35:42;21.70;99.90
2012;DHT22;1009;51.436;6.972;2022-07-29T12:38:11;21.50;99.90
2012;DHT22;1009;51.436;6.972;2022-07-29T12:40:38;21.50;99.90
2012;DHT22;1009;51.436;6.972;2022-07-29T12:43:07;21.50;99.90
2012;DHT22;1009;51.436;6.972;2022-07-29T12:45:36;21.50;99.90
2012;DHT22;1009;51.436;6.972;2022-07-29T12:48:03;21.70;99.90
2012;DHT22;1009;51.436;6.972;2022-07-29T12:50:30;21.80;99.90
2012;DHT22;1009;51.436;6.972;2022-07-29T12:53:09;22.10;99.90
2012;DHT22;1009;51.436;6.972;2022-07-29T12:55:43;22.30;99.90
2012;DHT22;1009;51.436;6.972;2022-07-29T12:58:14;22.30;99.90
2012;DHT22;1009;51.436;6.972;2022-07-29T13:01:00;22.30;99.90
2012;DHT22;1009;51.436;6.972;2022-07-29T13:03:27;22.20;99.90
2012;DHT22;1009;51.436;6.972;2022-07-29T13:05:54;22.20;99.90
2012;DHT22;1009;51.436;6.972;2022-07-29T13:08:21;22.10;99.90
2012;DHT22;1009;51.436;6.972;2022-07-29T13:10:48;22.10;99.90
2012;DHT22;1009;51.436;6.972;2022-07-29T13:13:15;22.00;99.90
2012;DHT22;1009;51.436;6.972;2022-07-29T13:15:43;22.10;99.90
2012;DHT22;1009;51.436;6.972;2022-07-29T13:18:30;22.10;99.90
2012;DHT22;1009;51.436;6.972;2022-07-29T13:21:10;22.20;99.90
2012;DHT22;1009;51.436;6.972;2022-07-29T13:23:37;22.40;99.90
2012;DHT22;1009;51.436;6.972;2022-07-29T13:26:05;22.50;99.90
2012;DHT22;1009;51.436;6.972;2022-07-29T13:28:33;22.60;99.90
2012;DHT22;1009;51.436;6.972;2022-07-29T13:31:00;22.50;99.90
2012;DHT22;1009;51.436;6.972;2022-07-29T13:33:28;22.50;99.90
2012;DHT22;1009;51.436;6.972;2022-07-29T13:35:55;22.60;99.90
2012;DHT22;1009;51.436;6.972;2022-07-29T13:38:22;22.60;99.90
2012;DHT22;1009;51.436;6.972;2022-07-29T13:40:49;22.70;99.90
2012;DHT22;1009;51.436;6.972;2022-07-29T13:43:16;22.80;99.90
2012;DHT22;1009;51.436;6.972;2022-07-29T13:45:42;23.30;99.90
2012;DHT22;1009;51.436;6.972;2022-07-29T13:48:09;23.50;99.90
2012;DHT22;1009;51.436;6.972;2022-07-29T13:50:37;23.70;99.90
2012;DHT22;1009;51.436;6.972;2022-07-29T13:53:04;23.90;99.90
2012;DHT22;1009;51.436;6.972;2022-07-29T13:55:31;24.20;99.90
2012;DHT22;1009;51.436;6.972;2022-07-29T13:57:58;24.30;99.90
2012;DHT22;1009;51.436;6.972;2022-07-29T14:00:24;24.30;99.90
2012;DHT22;1009;51.436;6.972;2022-07-29T14:02:51;24.20;99.90
2012;DHT22;1009;51.436;6.972;2022-07-29T14:05:18;24.30;99.90
2012;DHT22;1009;51.436;6.972;2022-07-29T14:07:46;24.40;99.90
2012;DHT22;1009;51.436;6.972;2022-07-29T14:10:13;24.60;99.90
2012;DHT22;1009;51.436;6.972;2022-07-29T14:12:40;24.70;99.90
2012;DHT22;1009;51.436;6.972;2022-07-29T14:15:08;24.70;99.90
2012;DHT22;1009;51.436;6.972;2022-07-29T14:17:35;24.60;99.90
2012;DHT22;1009;51.436;6.972;2022-07-29T14:20:02;24.50;99.90
2012;DHT22;1009;51.436;6.972;2022-07-29T14:22:29;24.60;99.90
2012;DHT22;1009;51.436;6.972;2022-07-29T14:24:57;24.30;99.90
2012;DHT22;1009;51.436;6.972;2022-07-29T14:27:24;24.10;99.90
2012;DHT22;1009;51.436;6.972;2022-07-29T14:29:51;24.20;99.90
2012;DHT22;1009;51.436;6.972;2022-07-29T14:32:18;24.20;99.90
2012;DHT22;1009;51.436;6.972;2022-07-29T14:34:44;24.30;99.90
2012;DHT22;1009;51.436;6.972;2022-07-29T14:37:11;24.50;99.90
2012;DHT22;1009;51.436;6.972;2022-07-29T14:39:38;24.50;99.90
2012;DHT22;1009;51.436;6.972;2022-07-29T14:42:06;24.50;99.90
2012;DHT22;1009;51.436;6.972;2022-07-29T14:44:33;24.50;99.90
2012;DHT22;1009;51.436;6.972;2022-07-29T14:47:00;24.50;99.90
2012;DHT22;1009;51.436;6.972;2022-07-29T14:49:27;24.40;99.90
2012;DHT22;1009;51.436;6.972;2022-07-29T14:51:54;24.50;99.90
2012;DHT22;1009;51.436;6.972;2022-07-29T14:54:20;24.30;99.90
2012;DHT22;1009;51.436;6.972;2022-07-29T14:56:48;24.00;99.90
2012;DHT22;1009;51.436;6.972;2022-07-29T14:59:17;24.00;99.90
2012;DHT22;1009;51.436;6.972;2022-07-29T15:01:44;24.20;99.90
2012;DHT22;1009;51.436;6.972;2022-07-29T15:04:11;24.40;99.90
2012;DHT22;1009;51.436;6.972;2022-07-29T15:06:38;24.50;99.90
2012;DHT22;1009;51.436;6.972;2022-07-29T15:09:04;24.40;99.90
2012;DHT22;1009;51.436;6.972;2022-07-29T15:11:31;24.20;99.90
2012;DHT22;1009;51.436;6.972;2022-07-29T15:13:58;24.30;99.90
2012;DHT22;1009;51.436;6.972;2022-07-29T15:16:26;24.20;99.90
2012;DHT22;1009;51.436;6.972;2022-07-29T15:18:53;24.10;99.90
2012;DHT22;1009;51.436;6.972;2022-07-29T15:21:22;24.20;99.90
2012;DHT22;1009;51.436;6.972;2022-07-29T15:23:48;24.10;99.90
2012;DHT22;1009;51.436;6.972;2022-07-29T15:26:15;23.90;99.90
2012;DHT22;1009;51.436;6.972;2022-07-29T15:28:43;23.90;99.90
2012;DHT22;1009;51.436;6.972;2022-07-29T15:31:10;23.70;99.90
2012;DHT22;1009;51.436;6.972;2022-07-29T15:33:38;23.70;99.90
2012;DHT22;1009;51.436;6.972;2022-07-29T15:36:05;23.70;99.90
2012;DHT22;1009;51.436;6.972;2022-07-29T15:38:32;23.70;99.90
2012;DHT22;1009;51.436;6.972;2022-07-29T15:40:58;23.70;99.90
2012;DHT22;1009;51.436;6.972;2022-07-29T15:43:25;23.60;99.90
2012;DHT22;1009;51.436;6.972;2022-07-29T15:45:52;23.50;99.90
2012;DHT22;1009;51.436;6.972;2022-07-29T15:48:40;23.50;99.90
2012;DHT22;1009;51.436;6.972;2022-07-29T15:51:07;23.60;99.90
2012;DHT22;1009;51.436;6.972;2022-07-29T15:53:34;23.60;99.90
2012;DHT22;1009;51.436;6.972;2022-07-29T15:56:01;23.60;99.90
2012;DHT22;1009;51.436;6.972;2022-07-29T15:58:28;23.50;99.90
2012;DHT22;1009;51.436;6.972;2022-07-29T16:00:54;23.40;99.90
2012;DHT22;1009;51.436;6.972;2022-07-29T16:03:21;23.40;99.90
2012;DHT22;1009;51.436;6.972;2022-07-29T16:05:50;23.40;99.90
2012;DHT22;1009;51.436;6.972;2022-07-29T16:08:17;23.40;99.90
2012;DHT22;1009;51.436;6.972;2022-07-29T16:10:43;23.30;99.90
2012;DHT22;1009;51.436;6.972;2022-07-29T16:13:10;23.30;99.90
2012;DHT22;1009;51.436;6.972;2022-07-29T16:15:37;23.20;99.90
2012;DHT22;1009;51.436;6.972;2022-07-29T16:18:04;23.30;99.90